sensor_id;sensor_type;location;lat;lon;timestamp;pressure;altitude;pressure_sealevel;temperature;humidity
21129;BME280;10722;51.910;8.352;2023-05-22T00:01:51;100714.63;;;17.74;100.00
21129;BME280;10722;51.910;8.352;2023-05-22T00:04:36;100717.25;;;17.73;100.00
21129;BME280;10722;51.910;8.352;2023-05-22T00:07:22;100724.09;;;17.86;100.00
21129;BME280;10722;51.910;8.352;2023-05-22T00:10:08;100715.56;;;17.67;100.00
21129;BME280;10722;51.910;8.352;2023-05-22T00:12:53;100718.97;;;17.75;100.00
21129;BME280;10722;51.910;8.352;2023-05-22T00:15:39;100711.22;;;17.66;100.00
21129;BME280;10722;51.910;8.352;2023-05-22T00:18:24;100703.44;;;17.63;100.00
21129;BME280;10722;51.910;8.352;2023-05-22T00:21:10;100702.59;;;17.58;100.00
21129;BME280;10722;51.910;8.352;2023-05-22T00:23:55;100700.03;;;17.55;100.00
21129;BME280;10722;51.910;8.352;2023-05-22T00:26:41;100700.81;;;17.63;100.00
21129;BME280;10722;51.910;8.352;2023-05-22T00:29:26;100697.47;;;17.52;100.00
21129;BME280;10722;51.910;8.352;2023-05-22T00:32:11;100688.75;;;17.50;100.00
21129;BME280;10722;51.910;8.352;2023-05-22T00:34:57;100679.19;;;17.48;100.00
21129;BME280;10722;51.910;8.352;2023-05-22T00:37:42;100668.69;;;17.50;100.00
21129;BME280;10722;51.910;8.352;2023-05-22T00:40:28;100672.19;;;17.47;100.00
21129;BME280;10722;51.910;8.352;2023-05-22T00:43:13;100664.34;;;17.49;100.00
21129;BME280;10722;51.910;8.352;2023-05-22T00:45:59;100671.22;;;17.56;100.00
21129;BME280;10722;51.910;8.352;2023-05-22T00:48:44;100669.59;;;17.49;100.00
21129;BME280;10722;51.910;8.352;2023-05-22T00:51:29;100667.75;;;17.57;100.00
21129;BME280;10722;51.910;8.352;2023-05-22T00:54:15;100666.06;;;17.52;100.00
21129;BME280;10722;51.910;8.352;2023-05-22T00:57:01;100660.72;;;17.61;100.00
21129;BME280;10722;51.910;8.352;2023-05-22T00:59:47;100650.16;;;17.67;100.00
21129;BME280;10722;51.910;8.352;2023-05-22T01:02:32;100653.69;;;17.64;100.00
21129;BME280;10722;51.910;8.352;2023-05-22T01:05:18;100654.66;;;17.56;100.00
21129;BME280;10722;51.910;8.352;2023-05-22T01:08:04;100652.09;;;17.51;100.00
21129;BME280;10722;51.910;8.352;2023-05-22T01:10:54;100659.00;;;17.60;100.00
21129;BME280;10722;51.910;8.352;2023-05-22T01:32:23;100658.34;;;17.41;100.00
21129;BME280;10722;51.910;8.352;2023-05-22T01:35:10;100668.75;;;17.44;100.00
21129;BME280;10722;51.910;8.352;2023-05-22T01:37:56;100674.97;;;17.35;100.00
21129;BME280;10722;51.910;8.352;2023-05-22T01:40:43;100681.03;;;17.39;100.00
21129;BME280;10722;51.910;8.352;2023-05-22T01:43:29;100675.78;;;17.39;100.00
21129;BME280;10722;51.910;8.352;2023-05-22T01:46:14;100674.97;;;17.35;100.00
21129;BME280;10722;51.910;8.352;2023-05-22T01:49:00;100665.94;;;17.61;100.00
21129;BME280;10722;51.910;8.352;2023-05-22T01:54:54;100665.28;;;17.43;100.00
21129;BME280;10722;51.910;8.352;2023-05-22T01:57:48;100664.44;;;17.43;100.00
21129;BME280;10722;51.910;8.352;2023-05-22T02:00:35;100661.69;;;17.51;100.00
21129;BME280;10722;51.910;8.352;2023-05-22T02:03:27;100662.59;;;17.50;100.00
21129;BME280;10722;51.910;8.352;2023-05-22T02:06:14;100668.72;;;17.45;100.00
21129;BME280;10722;51.910;8.352;2023-05-22T02:09:00;100662.63;;;17.46;100.00
21129;BME280;10722;51.910;8.352;2023-05-22T02:11:46;100660.84;;;17.50;100.00
21129;BME280;10722;51.910;8.352;2023-05-22T02:14:32;100660.78;;;17.55;100.00
21129;BME280;10722;51.910;8.352;2023-05-22T02:17:18;100662.38;;;17.66;100.00
21129;BME280;10722;51.910;8.352;2023-05-22T02:20:04;100647.34;;;17.84;100.00
21129;BME280;10722;51.910;8.352;2023-05-22T02:22:49;100637.84;;;17.75;100.00
21129;BME280;10722;51.910;8.352;2023-05-22T02:25:34;100632.59;;;17.78;100.00
21129;BME280;10722;51.910;8.352;2023-05-22T02:28:19;100631.91;;;17.64;100.00
21129;BME280;10722;51.910;8.352;2023-05-22T02:31:05;100625.84;;;17.60;100.00
21129;BME280;10722;51.910;8.352;2023-05-22T02:33:50;100627.53;;;17.64;100.00
21129;BME280;10722;51.910;8.352;2023-05-22T02:36:35;100632.03;;;17.55;100.00
21129;BME280;10722;51.910;8.352;2023-05-22T02:39:21;100621.53;;;17.58;100.00
21129;BME280;10722;51.910;8.352;2023-05-22T02:42:06;100625.00;;;17.58;100.00
21129;BME280;10722;51.910;8.352;2023-05-22T02:44:51;100626.78;;;17.55;100.00
21129;BME280;10722;51.910;8.352;2023-05-22T02:47:37;100611.97;;;17.54;100.00
21129;BME280;10722;51.910;8.352;2023-05-22T02:50:22;100612.78;;;17.60;100.00
21129;BME280;10722;51.910;8.352;2023-05-22T02:53:07;100616.91;;;17.75;100.00
21129;BME280;10722;51.910;8.352;2023-05-22T02:55:52;100608.34;;;17.62;100.00
21129;BME280;10722;51.910;8.352;2023-05-22T02:58:38;100607.59;;;17.56;100.00
21129;BME280;10722;51.910;8.352;2023-05-22T03:01:23;100604.06;;;17.57;100.00
21129;BME280;10722;51.910;8.352;2023-05-22T03:04:08;100599.59;;;17.65;100.00
21129;BME280;10722;51.910;8.352;2023-05-22T03:06:54;100598.66;;;17.72;100.00
21129;BME280;10722;51.910;8.352;2023-05-22T03:09:39;100587.22;;;17.78;100.00
21129;BME280;10722;51.910;8.352;2023-05-22T03:12:25;100585.50;;;17.78;100.00
21129;BME280;10722;51.910;8.352;2023-05-22T03:15:10;100582.94;;;17.72;100.00
21129;BME280;10722;51.910;8.352;2023-05-22T03:17:56;100583.94;;;17.63;100.00
21129;BME280;10722;51.910;8.352;2023-05-22T03:20:41;100585.56;;;17.70;100.00
21129;BME280;10722;51.910;8.352;2023-05-22T03:23:26;100588.25;;;17.67;100.00
21129;BME280;10722;51.910;8.352;2023-05-22T03:26:11;100589.19;;;17.62;100.00
21129;BME280;10722;51.910;8.352;2023-05-22T03:28:57;100585.72;;;17.61;100.00
21129;BME280;10722;51.910;8.352;2023-05-22T03:31:42;100587.25;;;17.76;100.00
21129;BME280;10722;51.910;8.352;2023-05-22T03:34:28;100588.19;;;17.72;100.00
21129;BME280;10722;51.910;8.352;2023-05-22T03:37:13;100584.66;;;17.73;100.00
21129;BME280;10722;51.910;8.352;2023-05-22T03:39:58;100586.31;;;17.82;100.00
21129;BME280;10722;51.910;8.352;2023-05-22T03:42:44;100576.00;;;17.69;100.00
21129;BME280;10722;51.910;8.352;2023-05-22T03:45:29;100571.72;;;17.65;100.00
21129;BME280;10722;51.910;8.352;2023-05-22T03:48:14;100572.50;;;17.70;100.00
21129;BME280;10722;51.910;8.352;2023-05-22T03:51:00;100568.38;;;17.54;100.00
21129;BME280;10722;51.910;8.352;2023-05-22T03:53:45;100562.06;;;17.67;100.00
21129;BME280;10722;51.910;8.352;2023-05-22T03:56:30;100564.78;;;17.61;100.00
21129;BME280;10722;51.910;8.352;2023-05-22T03:59:16;100571.81;;;17.58;100.00
21129;BME280;10722;51.910;8.352;2023-05-22T04:02:01;100564.06;;;17.50;100.00
21129;BME280;10722;51.910;8.352;2023-05-22T04:04:46;100575.53;;;17.40;100.00
21129;BME280;10722;51.910;8.352;2023-05-22T04:07:32;100574.44;;;17.56;100.00
21129;BME280;10722;51.910;8.352;2023-05-22T04:10:17;100571.81;;;17.56;100.00
21129;BME280;10722;51.910;8.352;2023-05-22T04:13:06;100576.28;;;17.48;100.00
21129;BME280;10722;51.910;8.352;2023-05-22T04:15:51;100565.09;;;17.37;100.00
21129;BME280;10722;51.910;8.352;2023-05-22T04:18:36;100575.53;;;17.40;100.00
21129;BME280;10722;51.910;8.352;2023-05-22T04:21:22;100571.09;;;17.45;100.00
21129;BME280;10722;51.910;8.352;2023-05-22T04:24:07;100573.63;;;17.54;100.00
21129;BME280;10722;51.910;8.352;2023-05-22T04:26:53;100566.72;;;17.48;100.00
21129;BME280;10722;51.910;8.352;2023-05-22T04:29:38;100569.34;;;17.45;100.00
21129;BME280;10722;51.910;8.352;2023-05-22T04:32:23;100572.78;;;17.51;100.00
21129;BME280;10722;51.910;8.352;2023-05-22T04:35:09;100577.16;;;17.50;100.00
21129;BME280;10722;51.910;8.352;2023-05-22T04:37:56;100578.03;;;17.49;100.00
21129;BME280;10722;51.910;8.352;2023-05-22T04:40:41;100574.63;;;17.44;100.00
21129;BME280;10722;51.910;8.352;2023-05-22T04:43:26;100578.19;;;17.38;100.00
21129;BME280;10722;51.910;8.352;2023-05-22T04:46:12;100583.41;;;17.37;100.00
21129;BME280;10722;51.910;8.352;2023-05-22T04:48:57;100589.38;;;17.48;100.00
21129;BME280;10722;51.910;8.352;2023-05-22T04:51:42;100586.84;;;17.42;100.00
21129;BME280;10722;51.910;8.352;2023-05-22T04:54:27;100579.81;;;17.45;100.00
21129;BME280;10722;51.910;8.352;2023-05-22T04:57:13;100586.53;;;17.66;100.00
21129;BME280;10722;51.910;8.352;2023-05-22T04:59:58;100580.34;;;17.70;100.00
21129;BME280;10722;51.910;8.352;2023-05-22T05:02:43;100584.63;;;17.76;100.00
21129;BME280;10722;51.910;8.352;2023-05-22T05:05:29;100584.50;;;17.88;100.00
21129;BME280;10722;51.910;8.352;2023-05-22T05:08:14;100587.16;;;17.85;100.00
21129;BME280;10722;51.910;8.352;2023-05-22T05:10:59;100578.47;;;17.83;100.00
21129;BME280;10722;51.910;8.352;2023-05-22T05:13:45;100581.16;;;17.76;100.00
21129;BME280;10722;51.910;8.352;2023-05-22T05:16:30;100587.88;;;17.95;100.00
21129;BME280;10722;51.910;8.352;2023-05-22T05:19:17;100569.50;;;18.00;100.00
21129;BME280;10722;51.910;8.352;2023-05-22T05:22:02;100571.16;;;18.05;100.00
21129;BME280;10722;51.910;8.352;2023-05-22T05:24:47;100582.34;;;18.15;100.00
21129;BME280;10722;51.910;8.352;2023-05-22T05:27:33;100573.63;;;18.13;100.00
21129;BME280;10722;51.910;8.352;2023-05-22T05:30:18;100571.97;;;18.09;100.00
21129;BME280;10722;51.910;8.352;2023-05-22T05:33:05;100573.72;;;18.07;100.00
21129;BME280;10722;51.910;8.352;2023-05-22T05:35:50;100569.41;;;18.06;100.00
21129;BME280;10722;51.910;8.352;2023-05-22T05:38:35;100577.19;;;18.10;100.00
21129;BME280;10722;51.910;8.352;2023-05-22T05:41:21;100568.38;;;18.16;100.00
21129;BME280;10722;51.910;8.352;2023-05-22T05:44:06;100580.47;;;18.23;100.00
21129;BME280;10722;51.910;8.352;2023-05-22T05:46:51;100577.88;;;18.22;100.00
21129;BME280;10722;51.910;8.352;2023-05-22T05:49:37;100582.00;;;18.35;100.00
21129;BME280;10722;51.910;8.352;2023-05-22T05:52:22;100578.53;;;18.34;100.00
21129;BME280;10722;51.910;8.352;2023-05-22T05:55:08;100581.75;;;18.50;100.00
21129;BME280;10722;51.910;8.352;2023-05-22T05:57:53;100568.00;;;18.39;100.00
21129;BME280;10722;51.910;8.352;2023-05-22T06:00:39;100564.59;;;18.32;100.00
21129;BME280;10722;51.910;8.352;2023-05-22T06:03:24;100568.00;;;18.39;100.00
21129;BME280;10722;51.910;8.352;2023-05-22T06:06:10;100565.38;;;18.37;100.00
21129;BME280;10722;51.910;8.352;2023-05-22T06:08:55;100563.84;;;18.26;100.00
21129;BME280;10722;51.910;8.352;2023-05-22T06:11:41;100568.16;;;18.28;100.00
21129;BME280;10722;51.910;8.352;2023-05-22T06:14:26;100570.84;;;18.25;100.00
21129;BME280;10722;51.910;8.352;2023-05-22T06:17:11;100578.66;;;18.27;100.00
21129;BME280;10722;51.910;8.352;2023-05-22T06:19:56;100580.25;;;18.35;100.00
21129;BME280;10722;51.910;8.352;2023-05-22T06:22:42;100574.81;;;18.48;100.00
21129;BME280;10722;51.910;8.352;2023-05-22T06:25:27;100574.88;;;18.45;100.00
21129;BME280;10722;51.910;8.352;2023-05-22T06:28:13;100573.00;;;18.53;100.00
21129;BME280;10722;51.910;8.352;2023-05-22T06:30:58;100562.69;;;18.42;100.00
21129;BME280;10722;51.910;8.352;2023-05-22T06:33:43;100567.47;;;18.67;100.00
21129;BME280;10722;51.910;8.352;2023-05-22T06:36:29;100569.16;;;18.71;100.00
21129;BME280;10722;51.910;8.352;2023-05-22T06:39:15;100572.63;;;18.71;100.00
21129;BME280;10722;51.910;8.352;2023-05-22T06:42:01;100571.56;;;18.83;100.00
21129;BME280;10722;51.910;8.352;2023-05-22T06:44:46;100575.84;;;18.89;100.00
21129;BME280;10722;51.910;8.352;2023-05-22T06:47:31;100569.72;;;18.88;100.00
21129;BME280;10722;51.910;8.352;2023-05-22T06:50:17;100566.59;;;19.14;100.00
21129;BME280;10722;51.910;8.352;2023-05-22T06:53:02;100564.50;;;19.32;100.00
21129;BME280;10722;51.910;8.352;2023-05-22T06:55:48;100557.31;;;19.40;100.00
21129;BME280;10722;51.910;8.352;2023-05-22T06:58:33;100550.91;;;19.53;100.00
21129;BME280;10722;51.910;8.352;2023-05-22T07:01:18;100534.06;;;19.63;99.05
21129;BME280;10722;51.910;8.352;2023-05-22T07:04:04;100523.53;;;19.66;97.27
21129;BME280;10722;51.910;8.352;2023-05-22T07:06:49;100525.06;;;19.77;96.01
21129;BME280;10722;51.910;8.352;2023-05-22T07:09:34;100511.53;;;19.93;95.09
21129;BME280;10722;51.910;8.352;2023-05-22T07:12:20;100513.94;;;20.01;94.17
21129;BME280;10722;51.910;8.352;2023-05-22T07:15:06;100512.41;;;20.28;93.10
21129;BME280;10722;51.910;8.352;2023-05-22T07:17:51;100528.75;;;20.38;93.23
21129;BME280;10722;51.910;8.352;2023-05-22T07:20:36;100512.31;;;20.31;92.57
21129;BME280;10722;51.910;8.352;2023-05-22T07:23:22;100501.88;;;20.28;90.89
21129;BME280;10722;51.910;8.352;2023-05-22T07:26:10;100516.22;;;20.49;91.17
21129;BME280;10722;51.910;8.352;2023-05-22T07:28:55;100487.91;;;20.60;89.10
21129;BME280;10722;51.910;8.352;2023-05-22T07:31:41;100478.34;;;20.58;87.69
21129;BME280;10722;51.910;8.352;2023-05-22T07:34:26;100485.72;;;20.76;88.04
21129;BME280;10722;51.910;8.352;2023-05-22T07:37:13;100466.19;;;20.85;85.35
21129;BME280;10722;51.910;8.352;2023-05-22T07:39:59;100458.38;;;20.82;84.91
21129;BME280;10722;51.910;8.352;2023-05-22T07:42:44;100460.94;;;20.85;84.58
21129;BME280;10722;51.910;8.352;2023-05-22T07:45:31;100471.44;;;20.85;84.91
21129;BME280;10722;51.910;8.352;2023-05-22T07:48:17;100503.53;;;20.98;87.18
21129;BME280;10722;51.910;8.352;2023-05-22T07:51:03;100490.56;;;21.20;86.27
21129;BME280;10722;51.910;8.352;2023-05-22T07:53:49;100491.94;;;21.33;86.00
21129;BME280;10722;51.910;8.352;2023-05-22T07:56:34;100485.72;;;21.36;84.49
21129;BME280;10722;51.910;8.352;2023-05-22T07:59:19;100506.09;;;21.59;85.12
21129;BME280;10722;51.910;8.352;2023-05-22T08:02:05;100459.94;;;21.48;82.33
21129;BME280;10722;51.910;8.352;2023-05-22T08:04:50;100447.81;;;21.43;81.13
21129;BME280;10722;51.910;8.352;2023-05-22T08:07:36;100477.84;;;21.34;82.64
21129;BME280;10722;51.910;8.352;2023-05-22T08:10:21;100486.41;;;21.13;82.75
21129;BME280;10722;51.910;8.352;2023-05-22T08:13:06;100453.41;;;21.02;81.01
21129;BME280;10722;51.910;8.352;2023-05-22T08:15:53;100488.09;;;21.45;82.19
21129;BME280;10722;51.910;8.352;2023-05-22T08:18:45;100454.38;;;21.56;79.59
21129;BME280;10722;51.910;8.352;2023-05-22T08:21:31;100479.38;;;21.71;80.72
21129;BME280;10722;51.910;8.352;2023-05-22T08:24:16;100458.00;;;21.80;79.69
21129;BME280;10722;51.910;8.352;2023-05-22T08:27:03;100458.19;;;22.01;79.38
21129;BME280;10722;51.910;8.352;2023-05-22T08:29:48;100446.75;;;22.28;77.98
21129;BME280;10722;51.910;8.352;2023-05-22T08:32:33;100424.59;;;22.07;77.28
21129;BME280;10722;51.910;8.352;2023-05-22T08:35:19;100425.25;;;21.89;77.14
21129;BME280;10722;51.910;8.352;2023-05-22T08:38:04;100454.34;;;21.84;78.90
21129;BME280;10722;51.910;8.352;2023-05-22T08:40:52;100452.66;;;22.08;78.89
21129;BME280;10722;51.910;8.352;2023-05-22T08:43:39;100443.44;;;21.97;77.63
21129;BME280;10722;51.910;8.352;2023-05-22T08:46:27;100454.34;;;21.84;78.43
21129;BME280;10722;51.910;8.352;2023-05-22T08:49:14;100453.41;;;22.12;77.86
21129;BME280;10722;51.910;8.352;2023-05-22T08:52:28;100481.00;;;22.28;79.02
21129;BME280;10722;51.910;8.352;2023-05-22T08:55:10;100466.59;;;22.38;77.76
21129;BME280;10722;51.910;8.352;2023-05-22T08:57:57;100446.22;;;22.67;77.05
21129;BME280;10722;51.910;8.352;2023-05-22T09:00:42;100457.13;;;23.05;77.00
21129;BME280;10722;51.910;8.352;2023-05-22T09:03:29;100455.81;;;23.39;76.07
21129;BME280;10722;51.910;8.352;2023-05-22T09:06:14;100425.16;;;23.79;74.72
21129;BME280;10722;51.910;8.352;2023-05-22T09:09:03;100424.88;;;23.85;73.98
21129;BME280;10722;51.910;8.352;2023-05-22T09:11:49;100432.06;;;22.70;75.22
21129;BME280;10722;51.910;8.352;2023-05-22T09:14:41;100478.84;;;22.65;77.67
21129;BME280;10722;51.910;8.352;2023-05-22T09:17:27;100469.03;;;22.68;77.30
21129;BME280;10722;51.910;8.352;2023-05-22T09:20:13;100468.91;;;22.71;77.10
21129;BME280;10722;51.910;8.352;2023-05-22T09:22:58;100470.88;;;22.41;77.79
21129;BME280;10722;51.910;8.352;2023-05-22T09:25:44;100470.56;;;22.50;76.92
21129;BME280;10722;51.910;8.352;2023-05-22T09:28:34;100461.94;;;22.70;76.65
21129;BME280;10722;51.910;8.352;2023-05-22T09:31:20;100495.16;;;23.23;77.93
21129;BME280;10722;51.910;8.352;2023-05-22T09:34:08;100466.63;;;23.33;75.59
21129;BME280;10722;51.910;8.352;2023-05-22T09:37:00;100447.50;;;23.04;74.65
21129;BME280;10722;51.910;8.352;2023-05-22T09:39:46;100432.34;;;23.09;73.90
21129;BME280;10722;51.910;8.352;2023-05-22T09:42:35;100487.19;;;22.27;78.12
21129;BME280;10722;51.910;8.352;2023-05-22T09:45:21;100502.69;;;22.36;78.98
21129;BME280;10722;51.910;8.352;2023-05-22T09:48:08;100525.63;;;22.58;80.47
21129;BME280;10722;51.910;8.352;2023-05-22T09:50:54;100484.03;;;22.66;78.31
21129;BME280;10722;51.910;8.352;2023-05-22T09:53:42;100484.91;;;22.67;77.77
21129;BME280;10722;51.910;8.352;2023-05-22T09:56:29;100494.50;;;23.40;77.58
21129;BME280;10722;51.910;8.352;2023-05-22T09:59:26;100459.31;;;23.17;75.34
21129;BME280;10722;51.910;8.352;2023-05-22T10:02:13;100466.78;;;23.50;75.27
21129;BME280;10722;51.910;8.352;2023-05-22T10:05:05;100440.25;;;23.31;74.07
21129;BME280;10722;51.910;8.352;2023-05-22T10:07:55;100469.56;;;23.69;75.38
21129;BME280;10722;51.910;8.352;2023-05-22T10:10:42;100487.00;;;23.95;75.67
21129;BME280;10722;51.910;8.352;2023-05-22T10:13:31;100461.38;;;24.17;74.23
21129;BME280;10722;51.910;8.352;2023-05-22T10:16:21;100468.91;;;24.06;75.26
21129;BME280;10722;51.910;8.352;2023-05-22T10:19:07;100474.53;;;24.19;74.41
21129;BME280;10722;51.910;8.352;2023-05-22T10:21:55;100480.19;;;24.71;74.92
21129;BME280;10722;51.910;8.352;2023-05-22T10:24:41;100409.97;;;24.04;71.48
21129;BME280;10722;51.910;8.352;2023-05-22T10:27:26;100463.00;;;23.35;75.11
21129;BME280;10722;51.910;8.352;2023-05-22T10:30:20;100508.09;;;23.97;77.50
21129;BME280;10722;51.910;8.352;2023-05-22T10:33:13;100461.69;;;23.23;75.31
21129;BME280;10722;51.910;8.352;2023-05-22T10:36:05;100532.34;;;24.27;79.24
21129;BME280;10722;51.910;8.352;2023-05-22T10:39:06;100487.97;;;25.14;75.25
21129;BME280;10722;51.910;8.352;2023-05-22T10:41:55;100423.22;;;25.40;71.22
21129;BME280;10722;51.910;8.352;2023-05-22T10:44:41;100386.47;;;24.58;70.00
21129;BME280;10722;51.910;8.352;2023-05-22T10:47:27;100472.13;;;24.74;73.96
21129;BME280;10722;51.910;8.352;2023-05-22T10:50:12;100462.44;;;25.13;73.00
21129;BME280;10722;51.910;8.352;2023-05-22T10:53:26;100446.75;;;25.46;71.81
21129;BME280;10722;51.910;8.352;2023-05-22T10:56:14;100390.44;;;25.77;68.59
21129;BME280;10722;51.910;8.352;2023-05-22T10:59:00;100393.00;;;25.79;68.37
21129;BME280;10722;51.910;8.352;2023-05-22T11:01:46;100433.72;;;26.12;69.90
21129;BME280;10722;51.910;8.352;2023-05-22T11:04:31;100380.94;;;26.41;66.99
21129;BME280;10722;51.910;8.352;2023-05-22T11:07:17;100378.22;;;26.43;66.59
21129;BME280;10722;51.910;8.352;2023-05-22T11:10:02;100378.03;;;26.46;66.53
21129;BME280;10722;51.910;8.352;2023-05-22T11:13:01;100359.72;;;26.58;64.76
21129;BME280;10722;51.910;8.352;2023-05-22T11:15:47;100365.75;;;26.60;65.11
21129;BME280;10722;51.910;8.352;2023-05-22T11:18:32;100379.84;;;26.78;66.06
21129;BME280;10722;51.910;8.352;2023-05-22T11:21:17;100344.81;;;26.23;64.73
21129;BME280;10722;51.910;8.352;2023-05-22T11:24:06;100403.25;;;26.54;67.00
21129;BME280;10722;51.910;8.352;2023-05-22T11:27:05;100355.94;;;26.63;65.44
21129;BME280;10722;51.910;8.352;2023-05-22T11:29:52;100348.03;;;26.12;65.13
21129;BME280;10722;51.910;8.352;2023-05-22T11:32:39;100350.94;;;25.90;65.64
21129;BME280;10722;51.910;8.352;2023-05-22T11:35:27;100389.19;;;26.19;67.47
21129;BME280;10722;51.910;8.352;2023-05-22T11:38:13;100366.09;;;26.54;65.67
21129;BME280;10722;51.910;8.352;2023-05-22T11:40:59;100354.16;;;26.95;64.57
21129;BME280;10722;51.910;8.352;2023-05-22T11:43:44;100335.66;;;26.62;64.02
21129;BME280;10722;51.910;8.352;2023-05-22T11:46:30;100345.34;;;26.78;64.18
21129;BME280;10722;51.910;8.352;2023-05-22T11:49:15;100363.56;;;27.16;64.76
21129;BME280;10722;51.910;8.352;2023-05-22T11:52:01;100331.94;;;27.58;62.41
21129;BME280;10722;51.910;8.352;2023-05-22T11:54:47;100302.53;;;27.31;61.08
21129;BME280;10722;51.910;8.352;2023-05-22T11:57:36;100306.41;;;27.55;61.56
21129;BME280;10722;51.910;8.352;2023-05-22T12:00:21;100322.69;;;27.19;62.75
21129;BME280;10722;51.910;8.352;2023-05-22T12:03:07;100318.94;;;26.91;62.64
21129;BME280;10722;51.910;8.352;2023-05-22T12:05:53;100324.56;;;27.33;62.98
21129;BME280;10722;51.910;8.352;2023-05-22T12:08:39;100322.00;;;27.76;62.69
21129;BME280;10722;51.910;8.352;2023-05-22T12:11:25;100286.59;;;27.75;61.45
21129;BME280;10722;51.910;8.352;2023-05-22T12:14:10;100359.19;;;28.34;63.98
21129;BME280;10722;51.910;8.352;2023-05-22T12:17:00;100346.25;;;28.71;62.78
21129;BME280;10722;51.910;8.352;2023-05-22T12:19:46;100307.22;;;28.57;61.43
21129;BME280;10722;51.910;8.352;2023-05-22T12:22:32;100284.16;;;28.15;60.55
21129;BME280;10722;51.910;8.352;2023-05-22T12:25:17;100282.31;;;27.72;60.69
21129;BME280;10722;51.910;8.352;2023-05-22T12:28:05;100311.03;;;28.53;60.88
21129;BME280;10722;51.910;8.352;2023-05-22T12:30:54;100261.25;;;28.55;58.48
21129;BME280;10722;51.910;8.352;2023-05-22T12:33:40;100299.56;;;28.24;61.14
21129;BME280;10722;51.910;8.352;2023-05-22T12:36:39;100307.50;;;27.81;61.56
21129;BME280;10722;51.910;8.352;2023-05-22T12:39:24;100308.84;;;28.46;60.24
21129;BME280;10722;51.910;8.352;2023-05-22T12:42:10;100280.47;;;28.73;58.52
21129;BME280;10722;51.910;8.352;2023-05-22T12:44:56;100265.81;;;29.08;57.52
21129;BME280;10722;51.910;8.352;2023-05-22T12:47:41;100243.06;;;29.02;56.43
21129;BME280;10722;51.910;8.352;2023-05-22T12:50:27;100231.06;;;28.42;56.53
21129;BME280;10722;51.910;8.352;2023-05-22T12:53:12;100272.09;;;28.09;58.50
21129;BME280;10722;51.910;8.352;2023-05-22T12:55:58;100262.00;;;27.57;59.44
21129;BME280;10722;51.910;8.352;2023-05-22T12:58:43;100308.66;;;27.47;60.70
21129;BME280;10722;51.910;8.352;2023-05-22T13:01:29;100316.47;;;27.04;61.80
21129;BME280;10722;51.910;8.352;2023-05-22T13:04:14;100324.66;;;26.99;62.06
21129;BME280;10722;51.910;8.352;2023-05-22T13:06:59;100324.44;;;27.64;61.04
21129;BME280;10722;51.910;8.352;2023-05-22T13:09:45;100279.22;;;28.09;58.31
21129;BME280;10722;51.910;8.352;2023-05-22T13:12:31;100260.75;;;28.34;57.14
21129;BME280;10722;51.910;8.352;2023-05-22T13:15:17;100265.84;;;28.10;58.33
21129;BME280;10722;51.910;8.352;2023-05-22T13:18:02;100311.66;;;28.71;59.38
21129;BME280;10722;51.910;8.352;2023-05-22T13:20:48;100279.22;;;28.23;59.00
21129;BME280;10722;51.910;8.352;2023-05-22T13:23:33;100257.63;;;26.96;59.12
21129;BME280;10722;51.910;8.352;2023-05-22T13:26:19;100315.88;;;26.18;62.58
21129;BME280;10722;51.910;8.352;2023-05-22T13:29:04;100311.44;;;25.68;62.78
21129;BME280;10722;51.910;8.352;2023-05-22T13:31:49;100324.16;;;25.96;63.32
21129;BME280;10722;51.910;8.352;2023-05-22T13:34:35;100317.16;;;26.60;62.31
21129;BME280;10722;51.910;8.352;2023-05-22T13:37:20;100302.44;;;26.54;61.45
21129;BME280;10722;51.910;8.352;2023-05-22T13:40:07;100325.91;;;25.96;63.68
21129;BME280;10722;51.910;8.352;2023-05-22T13:42:53;100303.94;;;26.43;62.02
21129;BME280;10722;51.910;8.352;2023-05-22T13:45:39;100282.91;;;25.03;62.79
21129;BME280;10722;51.910;8.352;2023-05-22T13:48:25;100325.38;;;25.19;64.43
21129;BME280;10722;51.910;8.352;2023-05-22T13:51:10;100331.09;;;25.10;64.45
21129;BME280;10722;51.910;8.352;2023-05-22T13:53:56;100327.44;;;24.76;64.70
21129;BME280;10722;51.910;8.352;2023-05-22T13:56:41;100343.44;;;24.92;65.43
21129;BME280;10722;51.910;8.352;2023-05-22T13:59:26;100343.00;;;25.38;65.64
21129;BME280;10722;51.910;8.352;2023-05-22T14:02:11;100334.34;;;25.34;65.14
21129;BME280;10722;51.910;8.352;2023-05-22T14:04:57;100357.56;;;24.91;66.59
21129;BME280;10722;51.910;8.352;2023-05-22T14:07:42;100339.69;;;24.96;65.47
21129;BME280;10722;51.910;8.352;2023-05-22T14:10:31;100314.13;;;24.78;64.08
21129;BME280;10722;51.910;8.352;2023-05-22T14:13:16;100293.03;;;24.76;63.64
21129;BME280;10722;51.910;8.352;2023-05-22T14:16:01;100315.44;;;24.50;65.15
21129;BME280;10722;51.910;8.352;2023-05-22T14:18:46;100336.97;;;24.41;66.50
21129;BME280;10722;51.910;8.352;2023-05-22T14:21:32;100360.59;;;24.65;67.72
21129;BME280;10722;51.910;8.352;2023-05-22T14:24:17;100363.16;;;24.85;67.57
21129;BME280;10722;51.910;8.352;2023-05-22T14:29:48;100377.69;;;24.76;68.69
21129;BME280;10722;51.910;8.352;2023-05-22T14:32:34;100381.56;;;25.43;68.54
21129;BME280;10722;51.910;8.352;2023-05-22T14:35:20;100346.03;;;25.82;66.67
21129;BME280;10722;51.910;8.352;2023-05-22T14:38:06;100332.94;;;25.97;64.95
21129;BME280;10722;51.910;8.352;2023-05-22T14:40:51;100349.25;;;26.22;65.66
21129;BME280;10722;51.910;8.352;2023-05-22T14:43:36;100343.88;;;25.90;65.89
21129;BME280;10722;51.910;8.352;2023-05-22T14:46:22;100366.75;;;24.65;68.38
21129;BME280;10722;51.910;8.352;2023-05-22T14:49:07;100397.91;;;24.38;70.61